sensor_id;sensor_type;location;lat;lon;timestamp;temperature;humidity
67050;DHT22;53955;52.442;13.284;2022-12-29T00:01:51;10.00;79.60
67050;DHT22;53955;52.442;13.284;2022-12-29T00:04:18;10.00;79.10
67050;DHT22;53955;52.442;13.284;2022-12-29T00:06:46;10.10;79.10
67050;DHT22;53955;52.442;13.284;2022-12-29T00:09:15;10.10;79.00
67050;DHT22;53955;52.442;13.284;2022-12-29T00:11:42;10.10;78.60
67050;DHT22;53955;52.442;13.284;2022-12-29T00:14:09;10.10;78.50
67050;DHT22;53955;52.442;13.284;2022-12-29T00:16:54;10.00;78.60
67050;DHT22;53955;52.442;13.284;2022-12-29T00:19:21;10.10;78.60
67050;DHT22;53955;52.442;13.284;2022-12-29T00:22:08;10.10;78.50
67050;DHT22;53955;52.442;13.284;2022-12-29T00:24:53;10.00;78.90
67050;DHT22;53955;52.442;13.284;2022-12-29T00:27:37;10.10;78.50
67050;DHT22;53955;52.442;13.284;2022-12-29T00:30:22;10.10;78.00
67050;DHT22;53955;52.442;13.284;2022-12-29T00:33:10;10.00;78.10
67050;DHT22;53955;52.442;13.284;2022-12-29T00:35:57;10.20;77.90
67050;DHT22;53955;52.442;13.284;2022-12-29T00:38:26;10.10;77.80
67050;DHT22;53955;52.442;13.284;2022-12-29T00:41:10;10.10;78.00
67050;DHT22;53955;52.442;13.284;2022-12-29T00:43:54;10.10;78.20
67050;DHT22;53955;52.442;13.284;2022-12-29T00:46:36;10.10;78.30
67050;DHT22;53955;52.442;13.284;2022-12-29T00:49:03;10.10;78.30
67050;DHT22;53955;52.442;13.284;2022-12-29T00:51:47;10.10;78.20
67050;DHT22;53955;52.442;13.284;2022-12-29T00:54:16;10.00;78.60
67050;DHT22;53955;52.442;13.284;2022-12-29T00:56:43;10.00;78.70
67050;DHT22;53955;52.442;13.284;2022-12-29T00:59:11;10.10;79.10
67050;DHT22;53955;52.442;13.284;2022-12-29T01:01:38;10.10;78.40
67050;DHT22;53955;52.442;13.284;2022-12-29T01:04:05;10.10;78.60
67050;DHT22;53955;52.442;13.284;2022-12-29T01:06:33;10.10;78.40
67050;DHT22;53955;52.442;13.284;2022-12-29T01:09:00;9.90;78.80
67050;DHT22;53955;52.442;13.284;2022-12-29T01:11:45;10.10;78.40
67050;DHT22;53955;52.442;13.284;2022-12-29T01:14:12;10.10;78.70
67050;DHT22;53955;52.442;13.284;2022-12-29T01:16:39;10.10;79.10
67050;DHT22;53955;52.442;13.284;2022-12-29T01:19:05;10.10;78.40
67050;DHT22;53955;52.442;13.284;2022-12-29T01:21:32;10.10;78.20
67050;DHT22;53955;52.442;13.284;2022-12-29T01:23:59;10.10;77.80
67050;DHT22;53955;52.442;13.284;2022-12-29T01:26:26;10.00;77.70
67050;DHT22;53955;52.442;13.284;2022-12-29T01:28:53;10.00;77.50
67050;DHT22;53955;52.442;13.284;2022-12-29T01:31:20;10.20;77.70
67050;DHT22;53955;52.442;13.284;2022-12-29T01:33:47;10.20;77.50
67050;DHT22;53955;52.442;13.284;2022-12-29T01:36:15;10.20;77.50
67050;DHT22;53955;52.442;13.284;2022-12-29T01:38:43;10.20;78.00
67050;DHT22;53955;52.442;13.284;2022-12-29T01:41:11;10.20;78.30
67050;DHT22;53955;52.442;13.284;2022-12-29T01:43:42;10.20;78.20
67050;DHT22;53955;52.442;13.284;2022-12-29T01:46:19;10.10;78.20
67050;DHT22;53955;52.442;13.284;2022-12-29T01:48:47;10.10;79.50
67050;DHT22;53955;52.442;13.284;2022-12-29T01:51:15;10.10;79.30
67050;DHT22;53955;52.442;13.284;2022-12-29T01:53:43;10.10;78.80
67050;DHT22;53955;52.442;13.284;2022-12-29T01:56:12;10.10;79.40
67050;DHT22;53955;52.442;13.284;2022-12-29T01:58:44;10.20;79.30
67050;DHT22;53955;52.442;13.284;2022-12-29T02:01:14;10.20;78.90
67050;DHT22;53955;52.442;13.284;2022-12-29T02:03:41;10.10;78.50
67050;DHT22;53955;52.442;13.284;2022-12-29T02:06:12;10.10;78.00
67050;DHT22;53955;52.442;13.284;2022-12-29T02:08:41;10.10;78.20
67050;DHT22;53955;52.442;13.284;2022-12-29T02:11:09;10.20;78.70
67050;DHT22;53955;52.442;13.284;2022-12-29T02:13:36;10.10;78.20
67050;DHT22;53955;52.442;13.284;2022-12-29T02:16:12;10.20;77.70
67050;DHT22;53955;52.442;13.284;2022-12-29T02:18:48;10.30;77.50
67050;DHT22;53955;52.442;13.284;2022-12-29T02:21:41;10.10;76.20
67050;DHT22;53955;52.442;13.284;2022-12-29T02:27:31;10.20;75.90
67050;DHT22;53955;52.442;13.284;2022-12-29T02:30:06;10.20;76.50
67050;DHT22;53955;52.442;13.284;2022-12-29T02:32:42;10.30;76.20
67050;DHT22;53955;52.442;13.284;2022-12-29T02:35:18;10.30;75.60
67050;DHT22;53955;52.442;13.284;2022-12-29T02:37:51;10.40;74.50
67050;DHT22;53955;52.442;13.284;2022-12-29T02:40:25;10.40;74.60
67050;DHT22;53955;52.442;13.284;2022-12-29T02:42:59;10.40;74.60
67050;DHT22;53955;52.442;13.284;2022-12-29T02:45:31;10.40;74.60
67050;DHT22;53955;52.442;13.284;2022-12-29T02:48:07;10.40;74.60
67050;DHT22;53955;52.442;13.284;2022-12-29T02:50:38;10.50;74.60
67050;DHT22;53955;52.442;13.284;2022-12-29T02:53:08;10.50;74.30
67050;DHT22;53955;52.442;13.284;2022-12-29T02:55:35;10.50;73.80
67050;DHT22;53955;52.442;13.284;2022-12-29T02:58:16;10.60;74.20
67050;DHT22;53955;52.442;13.284;2022-12-29T03:00:53;10.60;73.60
67050;DHT22;53955;52.442;13.284;2022-12-29T03:03:32;10.70;73.30
67050;DHT22;53955;52.442;13.284;2022-12-29T03:06:10;10.70;72.40
67050;DHT22;53955;52.442;13.284;2022-12-29T03:08:44;10.60;72.70
67050;DHT22;53955;52.442;13.284;2022-12-29T03:11:15;10.70;73.00
67050;DHT22;53955;52.442;13.284;2022-12-29T03:14:02;10.70;72.70
67050;DHT22;53955;52.442;13.284;2022-12-29T03:16:53;10.70;72.40
67050;DHT22;53955;52.442;13.284;2022-12-29T03:19:25;10.80;72.00
67050;DHT22;53955;52.442;13.284;2022-12-29T03:21:56;10.80;72.20
67050;DHT22;53955;52.442;13.284;2022-12-29T03:24:44;10.80;72.40
67050;DHT22;53955;52.442;13.284;2022-12-29T03:27:15;10.90;73.00
67050;DHT22;53955;52.442;13.284;2022-12-29T03:29:47;10.90;72.70
67050;DHT22;53955;52.442;13.284;2022-12-29T03:32:19;10.90;72.30
67050;DHT22;53955;52.442;13.284;2022-12-29T03:34:49;10.80;72.10
67050;DHT22;53955;52.442;13.284;2022-12-29T03:37:18;10.90;72.60
67050;DHT22;53955;52.442;13.284;2022-12-29T03:39:47;10.90;72.30
67050;DHT22;53955;52.442;13.284;2022-12-29T03:42:17;10.80;72.60
67050;DHT22;53955;52.442;13.284;2022-12-29T03:44:45;10.90;72.40
67050;DHT22;53955;52.442;13.284;2022-12-29T03:47:12;10.90;73.00
67050;DHT22;53955;52.442;13.284;2022-12-29T03:49:39;11.00;72.30
67050;DHT22;53955;52.442;13.284;2022-12-29T03:52:07;11.00;72.60
67050;DHT22;53955;52.442;13.284;2022-12-29T03:54:34;11.00;73.00
67050;DHT22;53955;52.442;13.284;2022-12-29T03:57:00;11.00;73.00
67050;DHT22;53955;52.442;13.284;2022-12-29T03:59:27;11.10;72.80
67050;DHT22;53955;52.442;13.284;2022-12-29T04:01:53;11.10;72.60
67050;DHT22;53955;52.442;13.284;2022-12-29T04:04:20;11.10;72.80
67050;DHT22;53955;52.442;13.284;2022-12-29T04:06:47;11.10;72.60
67050;DHT22;53955;52.442;13.284;2022-12-29T04:09:15;11.10;72.70
67050;DHT22;53955;52.442;13.284;2022-12-29T04:11:41;11.00;73.20
67050;DHT22;53955;52.442;13.284;2022-12-29T04:14:08;11.10;73.00
67050;DHT22;53955;52.442;13.284;2022-12-29T04:16:34;11.10;73.30
67050;DHT22;53955;52.442;13.284;2022-12-29T04:19:04;11.20;72.90
67050;DHT22;53955;52.442;13.284;2022-12-29T04:21:31;11.20;73.00
67050;DHT22;53955;52.442;13.284;2022-12-29T04:23:56;11.20;72.30
67050;DHT22;53955;52.442;13.284;2022-12-29T04:26:25;11.10;72.70
67050;DHT22;53955;52.442;13.284;2022-12-29T04:28:51;11.30;73.20
67050;DHT22;53955;52.442;13.284;2022-12-29T04:31:18;11.20;73.10
67050;DHT22;53955;52.442;13.284;2022-12-29T04:33:44;11.10;72.50
67050;DHT22;53955;52.442;13.284;2022-12-29T04:36:11;11.10;72.90
67050;DHT22;53955;52.442;13.284;2022-12-29T04:38:37;11.20;72.30
67050;DHT22;53955;52.442;13.284;2022-12-29T04:41:04;11.20;72.70
67050;DHT22;53955;52.442;13.284;2022-12-29T04:43:32;11.30;72.60
67050;DHT22;53955;52.442;13.284;2022-12-29T04:45:59;11.30;73.00
67050;DHT22;53955;52.442;13.284;2022-12-29T04:48:25;11.20;72.50
67050;DHT22;53955;52.442;13.284;2022-12-29T04:50:52;11.30;72.60
67050;DHT22;53955;52.442;13.284;2022-12-29T04:53:18;11.20;72.70
67050;DHT22;53955;52.442;13.284;2022-12-29T04:55:48;11.30;72.30
67050;DHT22;53955;52.442;13.284;2022-12-29T04:58:16;11.50;72.70
67050;DHT22;53955;52.442;13.284;2022-12-29T05:00:43;11.50;72.90
67050;DHT22;53955;52.442;13.284;2022-12-29T05:03:10;11.20;73.00
67050;DHT22;53955;52.442;13.284;2022-12-29T05:05:37;11.30;72.90
67050;DHT22;53955;52.442;13.284;2022-12-29T05:08:04;11.20;73.80
67050;DHT22;53955;52.442;13.284;2022-12-29T05:10:31;11.20;73.30
67050;DHT22;53955;52.442;13.284;2022-12-29T05:12:58;11.30;73.70
67050;DHT22;53955;52.442;13.284;2022-12-29T05:15:25;11.30;73.30
67050;DHT22;53955;52.442;13.284;2022-12-29T05:17:53;11.30;73.60
67050;DHT22;53955;52.442;13.284;2022-12-29T05:20:19;11.30;73.50
67050;DHT22;53955;52.442;13.284;2022-12-29T05:22:46;11.40;73.60
67050;DHT22;53955;52.442;13.284;2022-12-29T05:25:13;11.40;73.30
67050;DHT22;53955;52.442;13.284;2022-12-29T05:27:39;11.40;73.30
67050;DHT22;53955;52.442;13.284;2022-12-29T05:30:07;11.40;73.70
67050;DHT22;53955;52.442;13.284;2022-12-29T05:32:34;11.60;73.50
67050;DHT22;53955;52.442;13.284;2022-12-29T05:35:02;11.60;73.40
67050;DHT22;53955;52.442;13.284;2022-12-29T05:37:29;11.60;73.60
67050;DHT22;53955;52.442;13.284;2022-12-29T05:39:55;11.50;74.10
67050;DHT22;53955;52.442;13.284;2022-12-29T05:42:22;11.70;73.70
67050;DHT22;53955;52.442;13.284;2022-12-29T05:44:48;11.60;74.30
67050;DHT22;53955;52.442;13.284;2022-12-29T05:47:19;11.70;73.70
67050;DHT22;53955;52.442;13.284;2022-12-29T05:49:45;11.80;73.80
67050;DHT22;53955;52.442;13.284;2022-12-29T05:52:13;11.80;73.80
67050;DHT22;53955;52.442;13.284;2022-12-29T05:54:40;11.90;73.90
67050;DHT22;53955;52.442;13.284;2022-12-29T05:57:06;12.00;74.30
67050;DHT22;53955;52.442;13.284;2022-12-29T05:59:33;12.00;73.60
67050;DHT22;53955;52.442;13.284;2022-12-29T06:02:00;12.00;73.50
67050;DHT22;53955;52.442;13.284;2022-12-29T06:04:26;11.90;73.00
67050;DHT22;53955;52.442;13.284;2022-12-29T06:06:53;12.10;73.10
67050;DHT22;53955;52.442;13.284;2022-12-29T06:09:21;12.00;73.50
67050;DHT22;53955;52.442;13.284;2022-12-29T06:11:47;12.00;72.70
67050;DHT22;53955;52.442;13.284;2022-12-29T06:14:14;12.10;73.60
67050;DHT22;53955;52.442;13.284;2022-12-29T06:16:40;12.00;73.00
67050;DHT22;53955;52.442;13.284;2022-12-29T06:19:08;12.10;73.60
67050;DHT22;53955;52.442;13.284;2022-12-29T06:21:34;12.20;73.60
67050;DHT22;53955;52.442;13.284;2022-12-29T06:24:02;12.10;74.00
67050;DHT22;53955;52.442;13.284;2022-12-29T06:26:30;12.20;73.90
67050;DHT22;53955;52.442;13.284;2022-12-29T06:28:57;12.10;73.10
67050;DHT22;53955;52.442;13.284;2022-12-29T06:31:24;12.20;73.20
67050;DHT22;53955;52.442;13.284;2022-12-29T06:33:50;12.20;73.50
67050;DHT22;53955;52.442;13.284;2022-12-29T06:36:17;12.20;73.60
67050;DHT22;53955;52.442;13.284;2022-12-29T06:38:43;12.10;73.40
67050;DHT22;53955;52.442;13.284;2022-12-29T06:41:10;12.20;73.40
67050;DHT22;53955;52.442;13.284;2022-12-29T06:43:38;12.20;73.50
67050;DHT22;53955;52.442;13.284;2022-12-29T06:46:04;12.20;73.50
67050;DHT22;53955;52.442;13.284;2022-12-29T06:48:31;12.20;73.50
67050;DHT22;53955;52.442;13.284;2022-12-29T06:50:58;12.20;73.70
67050;DHT22;53955;52.442;13.284;2022-12-29T06:53:24;12.20;73.90
67050;DHT22;53955;52.442;13.284;2022-12-29T06:55:51;12.20;73.40
67050;DHT22;53955;52.442;13.284;2022-12-29T06:58:18;12.20;73.70
67050;DHT22;53955;52.442;13.284;2022-12-29T07:00:45;12.20;74.00
67050;DHT22;53955;52.442;13.284;2022-12-29T07:03:12;12.20;73.40
67050;DHT22;53955;52.442;13.284;2022-12-29T07:05:39;12.20;73.30
67050;DHT22;53955;52.442;13.284;2022-12-29T07:08:05;12.10;74.10
67050;DHT22;53955;52.442;13.284;2022-12-29T07:10:32;12.10;73.80
67050;DHT22;53955;52.442;13.284;2022-12-29T07:12:59;12.10;74.10
67050;DHT22;53955;52.442;13.284;2022-12-29T07:15:25;12.00;74.10
67050;DHT22;53955;52.442;13.284;2022-12-29T07:17:53;12.00;74.20
67050;DHT22;53955;52.442;13.284;2022-12-29T07:20:20;11.90;74.80
67050;DHT22;53955;52.442;13.284;2022-12-29T07:22:46;12.10;74.70
67050;DHT22;53955;52.442;13.284;2022-12-29T07:25:13;12.00;74.40
67050;DHT22;53955;52.442;13.284;2022-12-29T07:27:40;12.00;74.70
67050;DHT22;53955;52.442;13.284;2022-12-29T07:30:07;12.00;75.10
67050;DHT22;53955;52.442;13.284;2022-12-29T07:32:34;12.00;75.20
67050;DHT22;53955;52.442;13.284;2022-12-29T07:35:02;11.90;74.90
67050;DHT22;53955;52.442;13.284;2022-12-29T07:37:29;12.00;75.10
67050;DHT22;53955;52.442;13.284;2022-12-29T07:39:56;12.00;75.30
67050;DHT22;53955;52.442;13.284;2022-12-29T07:42:22;11.90;74.70
67050;DHT22;53955;52.442;13.284;2022-12-29T07:44:49;12.10;74.80
67050;DHT22;53955;52.442;13.284;2022-12-29T07:47:16;12.20;74.70
67050;DHT22;53955;52.442;13.284;2022-12-29T07:49:42;12.20;74.60
67050;DHT22;53955;52.442;13.284;2022-12-29T07:52:10;12.20;74.60
67050;DHT22;53955;52.442;13.284;2022-12-29T07:54:36;12.20;74.20
67050;DHT22;53955;52.442;13.284;2022-12-29T07:57:04;12.30;74.30
67050;DHT22;53955;52.442;13.284;2022-12-29T07:59:31;12.30;73.60
67050;DHT22;53955;52.442;13.284;2022-12-29T08:01:58;12.30;74.00
67050;DHT22;53955;52.442;13.284;2022-12-29T08:04:24;12.30;74.60
67050;DHT22;53955;52.442;13.284;2022-12-29T08:06:51;12.20;74.60
67050;DHT22;53955;52.442;13.284;2022-12-29T08:09:19;12.30;74.40
67050;DHT22;53955;52.442;13.284;2022-12-29T08:11:45;12.40;74.30
67050;DHT22;53955;52.442;13.284;2022-12-29T08:14:12;12.30;74.20
67050;DHT22;53955;52.442;13.284;2022-12-29T08:16:38;12.40;73.90
67050;DHT22;53955;52.442;13.284;2022-12-29T08:19:05;12.50;73.60
67050;DHT22;53955;52.442;13.284;2022-12-29T08:21:32;12.60;73.40
67050;DHT22;53955;52.442;13.284;2022-12-29T08:23:58;12.50;73.20
67050;DHT22;53955;52.442;13.284;2022-12-29T08:26:26;12.60;73.90
67050;DHT22;53955;52.442;13.284;2022-12-29T08:28:53;12.50;73.10
67050;DHT22;53955;52.442;13.284;2022-12-29T08:31:20;12.50;73.40
67050;DHT22;53955;52.442;13.284;2022-12-29T08:33:47;12.50;73.00
67050;DHT22;53955;52.442;13.284;2022-12-29T08:36:13;12.60;73.20
67050;DHT22;53955;52.442;13.284;2022-12-29T08:38:40;12.40;73.70
67050;DHT22;53955;52.442;13.284;2022-12-29T08:41:06;12.50;73.70
67050;DHT22;53955;52.442;13.284;2022-12-29T08:43:34;12.40;74.40
67050;DHT22;53955;52.442;13.284;2022-12-29T08:46:01;12.40;73.90
67050;DHT22;53955;52.442;13.284;2022-12-29T08:48:27;12.60;73.70
67050;DHT22;53955;52.442;13.284;2022-12-29T08:50:54;12.70;71.80
67050;DHT22;53955;52.442;13.284;2022-12-29T08:53:21;12.90;70.70
67050;DHT22;53955;52.442;13.284;2022-12-29T08:55:55;12.90;70.00
67050;DHT22;53955;52.442;13.284;2022-12-29T08:58:22;12.90;70.30
67050;DHT22;53955;52.442;13.284;2022-12-29T09:00:52;12.80;70.60
67050;DHT22;53955;52.442;13.284;2022-12-29T09:03:18;12.80;70.50
67050;DHT22;53955;52.442;13.284;2022-12-29T09:05:47;12.90;70.70
67050;DHT22;53955;52.442;13.284;2022-12-29T09:08:14;12.80;71.30
67050;DHT22;53955;52.442;13.284;2022-12-29T09:10:41;12.90;70.90
67050;DHT22;53955;52.442;13.284;2022-12-29T09:13:07;13.00;70.90
67050;DHT22;53955;52.442;13.284;2022-12-29T09:15:34;12.90;70.60
67050;DHT22;53955;52.442;13.284;2022-12-29T09:18:02;12.90;71.10
67050;DHT22;53955;52.442;13.284;2022-12-29T09:20:28;12.90;70.20
67050;DHT22;53955;52.442;13.284;2022-12-29T09:22:55;13.00;70.10
67050;DHT22;53955;52.442;13.284;2022-12-29T09:25:22;13.10;70.50
67050;DHT22;53955;52.442;13.284;2022-12-29T09:27:49;13.20;70.20
67050;DHT22;53955;52.442;13.284;2022-12-29T09:30:18;13.20;70.30
67050;DHT22;53955;52.442;13.284;2022-12-29T09:32:46;13.20;69.80
67050;DHT22;53955;52.442;13.284;2022-12-29T09:35:14;13.20;69.40
67050;DHT22;53955;52.442;13.284;2022-12-29T09:37:42;13.30;69.70
67050;DHT22;53955;52.442;13.284;2022-12-29T09:40:24;13.20;69.80
67050;DHT22;53955;52.442;13.284;2022-12-29T09:43:01;13.20;70.20
67050;DHT22;53955;52.442;13.284;2022-12-29T09:45:35;13.20;70.40
67050;DHT22;53955;52.442;13.284;2022-12-29T09:48:04;13.30;69.80
67050;DHT22;53955;52.442;13.284;2022-12-29T09:50:34;13.30;70.00
67050;DHT22;53955;52.442;13.284;2022-12-29T09:53:07;13.30;69.90
67050;DHT22;53955;52.442;13.284;2022-12-29T09:55:38;13.30;69.60
67050;DHT22;53955;52.442;13.284;2022-12-29T09:58:11;13.50;70.00
67050;DHT22;53955;52.442;13.284;2022-12-29T10:00:41;13.50;70.20
67050;DHT22;53955;52.442;13.284;2022-12-29T10:03:14;13.50;70.00
67050;DHT22;53955;52.442;13.284;2022-12-29T10:05:47;13.50;70.10
67050;DHT22;53955;52.442;13.284;2022-12-29T10:08:31;13.60;70.30
67050;DHT22;53955;52.442;13.284;2022-12-29T10:11:09;13.60;69.80
67050;DHT22;53955;52.442;13.284;2022-12-29T10:13:43;13.60;70.20
67050;DHT22;53955;52.442;13.284;2022-12-29T10:16:20;13.60;69.50
67050;DHT22;53955;52.442;13.284;2022-12-29T10:19:09;13.60;69.90
67050;DHT22;53955;52.442;13.284;2022-12-29T10:21:52;13.70;69.90
67050;DHT22;53955;52.442;13.284;2022-12-29T10:24:22;13.60;70.20
67050;DHT22;53955;52.442;13.284;2022-12-29T10:26:51;13.80;70.10
67050;DHT22;53955;52.442;13.284;2022-12-29T10:29:19;13.90;69.40
67050;DHT22;53955;52.442;13.284;2022-12-29T10:31:49;13.90;69.80
67050;DHT22;53955;52.442;13.284;2022-12-29T10:34:21;14.00;69.20
67050;DHT22;53955;52.442;13.284;2022-12-29T10:36:52;14.00;69.30
67050;DHT22;53955;52.442;13.284;2022-12-29T10:39:25;14.00;68.80
67050;DHT22;53955;52.442;13.284;2022-12-29T10:42:01;14.00;69.40
67050;DHT22;53955;52.442;13.284;2022-12-29T10:44:31;13.90;69.10
67050;DHT22;53955;52.442;13.284;2022-12-29T10:47:03;14.00;69.20
67050;DHT22;53955;52.442;13.284;2022-12-29T10:49:32;14.00;69.30
67050;DHT22;53955;52.442;13.284;2022-12-29T10:52:03;13.90;69.10
67050;DHT22;53955;52.442;13.284;2022-12-29T10:54:33;13.90;69.80
67050;DHT22;53955;52.442;13.284;2022-12-29T10:57:05;14.00;69.60
67050;DHT22;53955;52.442;13.284;2022-12-29T10:59:36;13.90;69.60
67050;DHT22;53955;52.442;13.284;2022-12-29T11:02:15;13.90;69.50
67050;DHT22;53955;52.442;13.284;2022-12-29T11:04:52;13.90;69.60
67050;DHT22;53955;52.442;13.284;2022-12-29T11:07:23;13.90;69.40
67050;DHT22;53955;52.442;13.284;2022-12-29T11:09:51;13.90;69.60
67050;DHT22;53955;52.442;13.284;2022-12-29T11:12:20;14.00;69.60
67050;DHT22;53955;52.442;13.284;2022-12-29T11:14:47;13.90;69.20
67050;DHT22;53955;52.442;13.284;2022-12-29T11:17:16;14.00;69.90
67050;DHT22;53955;52.442;13.284;2022-12-29T11:19:43;13.90;70.60
67050;DHT22;53955;52.442;13.284;2022-12-29T11:22:19;13.80;71.50
67050;DHT22;53955;52.442;13.284;2022-12-29T11:24:50;13.80;71.00
67050;DHT22;53955;52.442;13.284;2022-12-29T11:27:19;13.80;71.50
67050;DHT22;53955;52.442;13.284;2022-12-29T11:29:48;13.70;72.00
67050;DHT22;53955;52.442;13.284;2022-12-29T11:32:18;13.70;72.40
67050;DHT22;53955;52.442;13.284;2022-12-29T11:34:46;13.80;73.50
67050;DHT22;53955;52.442;13.284;2022-12-29T11:37:14;13.70;74.60
67050;DHT22;53955;52.442;13.284;2022-12-29T11:39:50;13.60;74.70
67050;DHT22;53955;52.442;13.284;2022-12-29T11:42:22;13.70;76.10
67050;DHT22;53955;52.442;13.284;2022-12-29T11:44:49;13.50;75.20
67050;DHT22;53955;52.442;13.284;2022-12-29T11:47:25;13.50;76.10
67050;DHT22;53955;52.442;13.284;2022-12-29T11:49:55;13.50;76.60
67050;DHT22;53955;52.442;13.284;2022-12-29T11:52:24;13.50;76.60
67050;DHT22;53955;52.442;13.284;2022-12-29T11:54:53;13.40;77.30
67050;DHT22;53955;52.442;13.284;2022-12-29T11:57:22;13.40;77.30
67050;DHT22;53955;52.442;13.284;2022-12-29T11:59:50;13.30;77.40
67050;DHT22;53955;52.442;13.284;2022-12-29T12:02:42;13.30;78.40
67050;DHT22;53955;52.442;13.284;2022-12-29T12:05:19;13.30;79.50
67050;DHT22;53955;52.442;13.284;2022-12-29T12:07:49;13.20;80.10
67050;DHT22;53955;52.442;13.284;2022-12-29T12:10:23;13.10;81.30
67050;DHT22;53955;52.442;13.284;2022-12-29T12:12:56;13.00;81.20
67050;DHT22;53955;52.442;13.284;2022-12-29T12:15:28;12.90;82.00
67050;DHT22;53955;52.442;13.284;2022-12-29T12:18:02;12.80;82.50
67050;DHT22;53955;52.442;13.284;2022-12-29T12:20:38;12.70;82.60
67050;DHT22;53955;52.442;13.284;2022-12-29T12:23:14;12.70;82.90
67050;DHT22;53955;52.442;13.284;2022-12-29T12:25:54;12.70;83.50
67050;DHT22;53955;52.442;13.284;2022-12-29T12:28:28;12.80;83.40
67050;DHT22;53955;52.442;13.284;2022-12-29T12:30:59;12.70;83.10
67050;DHT22;53955;52.442;13.284;2022-12-29T12:33:29;12.80;83.20
67050;DHT22;53955;52.442;13.284;2022-12-29T12:36:10;12.80;82.90
67050;DHT22;53955;52.442;13.284;2022-12-29T12:38:44;12.80;82.60
67050;DHT22;53955;52.442;13.284;2022-12-29T12:41:25;12.80;82.70
67050;DHT22;53955;52.442;13.284;2022-12-29T12:44:01;12.80;82.40
67050;DHT22;53955;52.442;13.284;2022-12-29T12:50:00;12.80;82.20
67050;DHT22;53955;52.442;13.284;2022-12-29T12:52:33;12.70;81.70
67050;DHT22;53955;52.442;13.284;2022-12-29T12:55:35;12.70;83.20
67050;DHT22;53955;52.442;13.284;2022-12-29T12:58:09;12.70;82.40
67050;DHT22;53955;52.442;13.284;2022-12-29T13:00:45;12.70;83.90
67050;DHT22;53955;52.442;13.284;2022-12-29T13:03:23;12.70;82.30
67050;DHT22;53955;52.442;13.284;2022-12-29T13:06:04;12.80;82.40
67050;DHT22;53955;52.442;13.284;2022-12-29T13:09:00;12.80;82.00
67050;DHT22;53955;52.442;13.284;2022-12-29T13:11:38;12.80;81.70
67050;DHT22;53955;52.442;13.284;2022-12-29T13:14:26;13.00;81.90
67050;DHT22;53955;52.442;13.284;2022-12-29T13:17:01;13.10;82.10
67050;DHT22;53955;52.442;13.284;2022-12-29T13:19:32;13.10;82.00
67050;DHT22;53955;52.442;13.284;2022-12-29T13:22:06;13.10;81.90
67050;DHT22;53955;52.442;13.284;2022-12-29T13:24:43;13.10;81.80
67050;DHT22;53955;52.442;13.284;2022-12-29T13:27:16;13.10;81.60
67050;DHT22;53955;52.442;13.284;2022-12-29T13:29:53;13.00;81.70
67050;DHT22;53955;52.442;13.284;2022-12-29T13:32:35;13.00;82.10
67050;DHT22;53955;52.442;13.284;2022-12-29T13:35:31;12.90;82.30
67050;DHT22;53955;52.442;13.284;2022-12-29T13:38:07;12.90;82.20
67050;DHT22;53955;52.442;13.284;2022-12-29T13:40:39;12.90;82.50
67050;DHT22;53955;52.442;13.284;2022-12-29T13:43:07;12.80;82.70
67050;DHT22;53955;52.442;13.284;2022-12-29T13:45:36;12.90;82.80
67050;DHT22;53955;52.442;13.284;2022-12-29T13:48:06;12.80;82.50
67050;DHT22;53955;52.442;13.284;2022-12-29T13:50:36;12.90;82.70
67050;DHT22;53955;52.442;13.284;2022-12-29T13:53:09;12.90;82.60
67050;DHT22;53955;52.442;13.284;2022-12-29T13:55:40;12.90;82.70
67050;DHT22;53955;52.442;13.284;2022-12-29T13:58:12;12.90;82.60
67050;DHT22;53955;52.442;13.284;2022-12-29T14:00:48;12.90;82.90
67050;DHT22;53955;52.442;13.284;2022-12-29T14:03:38;12.80;82.80
67050;DHT22;53955;52.442;13.284;2022-12-29T14:06:15;12.80;83.20
67050;DHT22;53955;52.442;13.284;2022-12-29T14:08:43;12.70;83.00
67050;DHT22;53955;52.442;13.284;2022-12-29T14:11:11;12.60;84.10
67050;DHT22;53955;52.442;13.284;2022-12-29T14:13:39;12.70;84.20
67050;DHT22;53955;52.442;13.284;2022-12-29T14:16:12;12.60;84.80
67050;DHT22;53955;52.442;13.284;2022-12-29T14:18:47;12.60;84.00
67050;DHT22;53955;52.442;13.284;2022-12-29T14:21:19;12.40;85.20
67050;DHT22;53955;52.442;13.284;2022-12-29T14:23:50;12.50;84.70
67050;DHT22;53955;52.442;13.284;2022-12-29T14:26:33;12.40;84.70
67050;DHT22;53955;52.442;13.284;2022-12-29T14:29:16;12.40;84.90
67050;DHT22;53955;52.442;13.284;2022-12-29T14:32:38;12.50;84.40
67050;DHT22;53955;52.442;13.284;2022-12-29T14:35:40;12.50;85.00
67050;DHT22;53955;52.442;13.284;2022-12-29T14:38:16;12.50;84.90
67050;DHT22;53955;52.442;13.284;2022-12-29T14:40:43;12.40;84.10
67050;DHT22;53955;52.442;13.284;2022-12-29T14:43:13;12.50;84.60
67050;DHT22;53955;52.442;13.284;2022-12-29T14:45:42;12.50;84.50
67050;DHT22;53955;52.442;13.284;2022-12-29T14:51:17;12.50;84.10
67050;DHT22;53955;52.442;13.284;2022-12-29T14:53:47;12.50;84.00
67050;DHT22;53955;52.442;13.284;2022-12-29T14:56:15;12.50;84.00
67050;DHT22;53955;52.442;13.284;2022-12-29T14:58:47;12.50;84.40
67050;DHT22;53955;52.442;13.284;2022-12-29T15:01:20;12.50;84.20
67050;DHT22;53955;52.442;13.284;2022-12-29T15:03:50;12.40;84.20
67050;DHT22;53955;52.442;13.284;2022-12-29T15:06:19;12.50;84.00
67050;DHT22;53955;52.442;13.284;2022-12-29T15:08:50;12.50;83.40
67050;DHT22;53955;52.442;13.284;2022-12-29T15:11:19;12.50;82.90
67050;DHT22;53955;52.442;13.284;2022-12-29T15:13:47;12.50;82.70
67050;DHT22;53955;52.442;13.284;2022-12-29T15:16:22;12.60;83.20
67050;DHT22;53955;52.442;13.284;2022-12-29T15:18:50;12.50;82.90
67050;DHT22;53955;52.442;13.284;2022-12-29T15:21:16;12.50;82.70
67050;DHT22;53955;52.442;13.284;2022-12-29T15:23:48;12.60;82.60
67050;DHT22;53955;52.442;13.284;2022-12-29T15:26:15;12.70;81.50
67050;DHT22;53955;52.442;13.284;2022-12-29T15:28:46;12.70;82.40
67050;DHT22;53955;52.442;13.284;2022-12-29T15:31:15;12.60;82.90
67050;DHT22;53955;52.442;13.284;2022-12-29T15:33:44;12.50;82.40
67050;DHT22;53955;52.442;13.284;2022-12-29T15:36:14;12.40;83.10
67050;DHT22;53955;52.442;13.284;2022-12-29T15:38:44;12.50;82.50
67050;DHT22;53955;52.442;13.284;2022-12-29T15:41:24;12.60;82.40
67050;DHT22;53955;52.442;13.284;2022-12-29T15:44:02;12.40;82.40
67050;DHT22;53955;52.442;13.284;2022-12-29T15:46:34;12.60;82.40
67050;DHT22;53955;52.442;13.284;2022-12-29T15:49:05;12.50;81.90